createdAt,value
2022-10-08T00:01:55.561Z,3.30
2022-10-08T00:04:58.631Z,3.33
2022-10-08T00:08:00.909Z,3.37
2022-10-08T00:11:08.952Z,3.33
2022-10-08T00:14:10.985Z,3.40
2022-10-08T00:17:12.799Z,3.77
2022-10-08T00:20:15.110Z,3.10
2022-10-08T00:23:17.448Z,3.60
2022-10-08T00:26:24.105Z,3.53
2022-10-08T00:29:26.119Z,3.20
2022-10-08T00:32:28.061Z,3.00
2022-10-08T00:35:29.989Z,3.20
2022-10-08T00:38:32.269Z,3.33
2022-10-08T00:41:38.415Z,3.73
2022-10-08T00:44:54.278Z,4.37
2022-10-08T00:47:58.445Z,4.43
2022-10-08T00:51:00.458Z,4.03
2022-10-08T00:54:03.764Z,3.60
2022-10-08T00:57:06.700Z,3.23
2022-10-08T01:00:13.761Z,3.73
2022-10-08T01:03:16.299Z,3.67
2022-10-08T01:06:32.931Z,3.77
2022-10-08T01:10:03.601Z,3.70
2022-10-08T01:13:05.459Z,3.37
2022-10-08T01:16:43.303Z,4.07
2022-10-08T01:20:00.502Z,3.60
2022-10-08T01:23:27.293Z,3.70
2022-10-08T01:26:50.124Z,3.60
2022-10-08T01:29:52.939Z,3.40
2022-10-08T01:33:12.619Z,4.00
2022-10-08T01:36:18.309Z,3.33
2022-10-08T01:39:22.135Z,3.00
2022-10-08T01:42:24.738Z,5.10
2022-10-08T01:45:33.017Z,3.10
2022-10-08T01:48:38.698Z,2.83
2022-10-08T01:51:49.715Z,3.00
2022-10-08T01:54:56.138Z,3.20
2022-10-08T01:58:01.829Z,3.33
2022-10-08T02:01:09.381Z,2.90
2022-10-08T02:04:30.318Z,3.30
2022-10-08T02:07:36.206Z,2.97
2022-10-08T02:10:38.452Z,3.47
2022-10-08T02:13:41.404Z,3.70
2022-10-08T02:16:51.204Z,2.80
2022-10-08T02:19:56.763Z,3.30
2022-10-08T02:23:17.942Z,3.50
2022-10-08T02:26:23.502Z,2.97
2022-10-08T02:29:33.904Z,3.47
2022-10-08T02:32:59.475Z,3.10
2022-10-08T02:36:03.459Z,3.03
2022-10-08T02:39:06.443Z,2.90
2022-10-08T02:42:14.659Z,3.17
2022-10-08T02:45:25.069Z,3.20
2022-10-08T02:48:31.835Z,3.17
2022-10-08T02:51:38.059Z,3.00
2022-10-08T02:54:43.519Z,2.90
2022-10-08T02:57:49.294Z,3.07
2022-10-08T03:01:00.307Z,3.13
2022-10-08T03:04:23.503Z,3.27
2022-10-08T03:07:26.544Z,3.17
2022-10-08T03:10:29.221Z,3.33
2022-10-08T03:13:37.854Z,3.30
2022-10-08T03:16:42.195Z,3.60
2022-10-08T03:19:44.320Z,3.43
2022-10-08T03:22:46.456Z,3.40
2022-10-08T03:25:48.645Z,3.20
2022-10-08T03:28:53.464Z,3.07
2022-10-08T03:31:55.425Z,3.10
2022-10-08T03:34:57.638Z,3.30
2022-10-08T03:37:59.675Z,3.97
2022-10-08T03:41:01.829Z,2.70
2022-10-08T03:44:04.335Z,2.83
2022-10-08T03:47:06.385Z,3.07
2022-10-08T03:50:09.608Z,2.67
2022-10-08T03:53:11.540Z,2.87
2022-10-08T03:56:17.058Z,3.17
2022-10-08T03:59:18.905Z,3.20
2022-10-08T04:02:20.850Z,3.67
2022-10-08T04:05:22.660Z,3.53
2022-10-08T04:08:25.619Z,3.33
2022-10-08T04:11:29.312Z,3.10
2022-10-08T04:14:31.554Z,3.07
2022-10-08T04:17:33.388Z,3.40
2022-10-08T04:20:35.343Z,2.87
2022-10-08T04:23:38.595Z,2.90
2022-10-08T04:26:41.374Z,3.30
2022-10-08T04:29:43.284Z,3.20
2022-10-08T04:32:45.476Z,3.13
2022-10-08T04:35:47.694Z,3.17
2022-10-08T04:38:50.498Z,2.90
2022-10-08T04:41:52.459Z,3.30
2022-10-08T04:44:55.317Z,2.90
2022-10-08T04:47:57.164Z,2.70
2022-10-08T04:51:01.137Z,3.20
2022-10-08T04:54:03.064Z,3.30
2022-10-08T04:57:05.329Z,3.00
2022-10-08T05:00:18.140Z,3.30
2022-10-08T05:03:21.293Z,2.70
2022-10-08T05:06:26.450Z,3.13
2022-10-08T05:09:28.350Z,3.33
2022-10-08T05:12:30.152Z,3.20
2022-10-08T05:15:32.178Z,4.30
2022-10-08T05:18:34.768Z,3.47
2022-10-08T05:21:36.921Z,3.30
2022-10-08T05:24:38.872Z,3.00
2022-10-08T05:27:41.388Z,3.87
2022-10-08T05:30:43.215Z,3.63
2022-10-08T05:33:45.414Z,3.20
2022-10-08T05:36:47.311Z,3.37
2022-10-08T05:39:49.518Z,3.47
2022-10-08T05:42:51.439Z,3.03
2022-10-08T05:45:53.371Z,5.07
2022-10-08T05:48:56.600Z,4.43
2022-10-08T05:51:58.924Z,3.63
2022-10-08T05:55:00.859Z,3.67
2022-10-08T05:58:02.812Z,2.47
2022-10-08T06:01:06.759Z,2.83
2022-10-08T06:04:11.320Z,3.03
2022-10-08T06:07:13.908Z,3.90
2022-10-08T06:10:15.789Z,3.23
2022-10-08T06:13:18.145Z,3.77
2022-10-08T06:16:21.010Z,3.10
2022-10-08T06:19:23.190Z,3.10
2022-10-08T06:22:25.019Z,3.10
2022-10-08T06:25:26.885Z,3.10
2022-10-08T06:28:28.807Z,3.60
2022-10-08T06:31:31.734Z,5.27
2022-10-08T06:34:33.618Z,4.20
2022-10-08T06:37:35.596Z,4.17
2022-10-08T06:40:41.044Z,3.10
2022-10-08T06:43:44.269Z,3.53
2022-10-08T06:46:46.312Z,3.57
2022-10-08T06:49:48.305Z,3.53
2022-10-08T06:52:50.365Z,3.77
2022-10-08T06:55:59.584Z,4.23
2022-10-08T06:59:01.413Z,7.27
2022-10-08T07:02:03.447Z,3.73
2022-10-08T07:05:06.123Z,3.67
2022-10-08T07:08:08.059Z,2.90
2022-10-08T07:11:17.909Z,3.17
2022-10-08T07:14:19.883Z,3.87
2022-10-08T07:17:22.826Z,3.90
2022-10-08T07:20:25.346Z,3.63
2022-10-08T07:23:27.269Z,4.03
2022-10-08T07:26:32.690Z,3.00
2022-10-08T07:29:34.508Z,2.73
2022-10-08T07:32:36.379Z,3.60
2022-10-08T07:35:39.097Z,3.60
2022-10-08T07:38:41.638Z,3.67
2022-10-08T07:41:43.507Z,3.70
2022-10-08T07:44:45.739Z,3.50
2022-10-08T07:47:47.583Z,5.20
2022-10-08T07:50:49.766Z,4.47
2022-10-08T07:53:52.185Z,5.17
2022-10-08T07:56:54.194Z,5.13
2022-10-08T07:59:56.063Z,3.13
2022-10-08T08:02:58.051Z,3.27
2022-10-08T08:06:05.010Z,3.80
2022-10-08T08:09:07.045Z,4.10
2022-10-08T08:12:09.287Z,3.57
2022-10-08T08:15:11.424Z,3.90
2022-10-08T08:18:13.393Z,3.83
2022-10-08T08:21:18.135Z,3.90
2022-10-08T08:24:20.188Z,5.00
2022-10-08T08:27:22.598Z,5.37
2022-10-08T08:30:24.583Z,4.73
2022-10-08T08:33:26.449Z,4.47
2022-10-08T08:36:30.975Z,3.80
2022-10-08T08:39:34.399Z,2.80
2022-10-08T08:42:48.641Z,3.57
2022-10-08T08:45:50.871Z,4.10
2022-10-08T08:48:54.449Z,2.83
2022-10-08T08:51:57.976Z,2.87
2022-10-08T08:55:00.882Z,3.03
2022-10-08T08:58:10.002Z,3.30
2022-10-08T09:01:31.760Z,5.67
2022-10-08T09:04:50.658Z,5.80
2022-10-08T09:08:18.820Z,5.13
2022-10-08T09:11:22.659Z,4.13
2022-10-08T09:14:33.269Z,3.60
2022-10-08T09:17:39.244Z,2.67
2022-10-08T09:20:41.427Z,2.37
2022-10-08T09:23:43.949Z,2.90
2022-10-08T09:26:46.236Z,4.97
2022-10-08T09:29:48.084Z,3.30
2022-10-08T09:32:50.888Z,3.20
2022-10-08T09:35:54.088Z,4.53
2022-10-08T09:38:59.863Z,3.60
2022-10-08T09:42:11.009Z,4.00
2022-10-08T09:45:35.668Z,5.07
2022-10-08T09:48:38.745Z,3.58
2022-10-08T09:51:43.224Z,2.60
2022-10-08T09:54:51.233Z,3.20
2022-10-08T09:58:00.759Z,2.97
2022-10-08T10:01:14.164Z,3.08
2022-10-08T10:04:31.366Z,2.42
2022-10-08T10:07:44.783Z,2.83
2022-10-08T10:10:46.891Z,2.80
2022-10-08T10:13:51.391Z,3.00
2022-10-08T10:17:02.526Z,2.40
2022-10-08T10:20:11.664Z,2.72
2022-10-08T10:23:29.969Z,3.80
2022-10-08T10:26:37.545Z,2.90
2022-10-08T10:30:14.255Z,3.25
2022-10-08T10:33:25.034Z,2.83
2022-10-08T10:36:31.199Z,3.33
2022-10-08T10:39:39.082Z,2.78
2022-10-08T10:42:47.815Z,3.15
2022-10-08T10:45:59.509Z,2.92
2022-10-08T10:49:02.279Z,2.75
2022-10-08T10:52:22.049Z,2.38
2022-10-08T10:56:15.463Z,2.63
2022-10-08T10:59:29.024Z,2.30
2022-10-08T11:02:47.589Z,2.30
2022-10-08T11:06:14.511Z,3.00
2022-10-08T11:09:30.955Z,2.47
2022-10-08T11:12:53.196Z,3.03
2022-10-08T11:16:15.481Z,3.00
2022-10-08T11:19:28.665Z,2.88
2022-10-08T11:22:41.126Z,2.80
2022-10-08T11:26:15.420Z,2.88
2022-10-08T11:29:38.776Z,2.53
2022-10-08T11:32:50.771Z,5.13
2022-10-08T11:36:32.622Z,5.75
2022-10-08T11:39:43.509Z,3.25
2022-10-08T11:43:21.136Z,4.03
2022-10-08T11:46:31.828Z,6.00
2022-10-08T11:49:34.029Z,3.75
2022-10-08T11:52:35.968Z,2.85
2022-10-08T11:55:38.503Z,2.70
2022-10-08T11:58:41.054Z,2.08
2022-10-08T12:01:54.863Z,2.42
2022-10-08T12:04:59.487Z,2.35
2022-10-08T12:08:06.563Z,2.65
2022-10-08T12:11:32.400Z,2.30
2022-10-08T12:14:45.449Z,2.50
2022-10-08T12:17:57.682Z,2.40
2022-10-08T12:21:18.262Z,2.88
2022-10-08T12:24:38.336Z,2.80
2022-10-08T12:27:41.526Z,3.10
2022-10-08T12:30:54.306Z,2.88
2022-10-08T12:34:01.983Z,2.53
2022-10-08T12:37:32.199Z,2.78
2022-10-08T12:40:55.274Z,2.42
2022-10-08T12:44:12.664Z,2.85
2022-10-08T12:47:43.127Z,3.08
2022-10-08T12:50:54.095Z,3.47
2022-10-08T12:53:57.261Z,3.22
2022-10-08T12:57:00.404Z,2.63
2022-10-08T13:00:17.172Z,2.33
2022-10-08T13:03:20.453Z,2.60
2022-10-08T13:06:33.711Z,2.22
2022-10-08T13:09:36.459Z,2.60
2022-10-08T13:12:38.365Z,3.75
2022-10-08T13:15:41.013Z,3.00
2022-10-08T13:18:50.335Z,2.65
2022-10-08T13:22:08.443Z,2.67
2022-10-08T13:25:36.564Z,3.10
2022-10-08T13:28:59.457Z,3.95
2022-10-08T13:32:15.453Z,3.92
2022-10-08T13:35:23.708Z,3.13
2022-10-08T13:38:28.457Z,2.88
2022-10-08T13:41:30.308Z,2.80
2022-10-08T13:44:33.087Z,2.55
2022-10-08T13:47:34.974Z,2.80
2022-10-08T13:50:36.888Z,2.78
2022-10-08T13:53:42.464Z,3.95
2022-10-08T13:56:44.404Z,2.95
2022-10-08T13:59:46.328Z,2.80
2022-10-08T14:02:49.164Z,3.17
2022-10-08T14:05:51.024Z,5.68
2022-10-08T14:08:52.987Z,6.38
2022-10-08T14:11:59.382Z,3.75
2022-10-08T14:15:02.306Z,3.30
2022-10-08T14:18:04.319Z,3.30
2022-10-08T14:21:07.405Z,2.80
2022-10-08T14:24:10.886Z,2.80
2022-10-08T14:27:12.879Z,2.97
2022-10-08T14:30:15.989Z,2.67
2022-10-08T14:33:17.945Z,2.70
2022-10-08T14:36:21.199Z,2.95
2022-10-08T14:39:23.388Z,2.70
2022-10-08T14:42:25.204Z,3.08
2022-10-08T14:45:27.738Z,3.20
2022-10-08T14:48:29.659Z,3.25
2022-10-08T14:51:38.542Z,3.55
2022-10-08T14:54:40.509Z,2.72
2022-10-08T14:57:42.525Z,2.80
2022-10-08T15:00:44.426Z,3.03
2022-10-08T15:03:46.590Z,3.25
2022-10-08T15:06:49.111Z,2.45
2022-10-08T15:09:51.228Z,3.90
2022-10-08T15:12:53.077Z,4.22
2022-10-08T15:15:55.063Z,3.30
2022-10-08T15:18:56.979Z,3.75
2022-10-08T15:21:59.256Z,3.70
2022-10-08T15:25:01.294Z,3.40
2022-10-08T15:28:05.060Z,5.73
2022-10-08T15:31:14.473Z,4.50
2022-10-08T15:34:17.787Z,3.97
2022-10-08T15:37:20.006Z,4.00
2022-10-08T15:40:22.142Z,3.40
2022-10-08T15:43:32.650Z,3.30
2022-10-08T15:46:35.249Z,3.35
2022-10-08T15:49:39.374Z,5.87
2022-10-08T15:52:46.061Z,5.73
2022-10-08T15:55:55.974Z,5.80
2022-10-08T15:58:59.523Z,6.10
2022-10-08T16:02:01.599Z,5.20
2022-10-08T16:05:03.789Z,5.73
2022-10-08T16:08:08.964Z,6.50
2022-10-08T16:11:22.978Z,6.50
2022-10-08T16:14:26.226Z,7.63
2022-10-08T16:17:28.479Z,7.67
2022-10-08T16:20:30.349Z,8.97
2022-10-08T16:23:34.293Z,8.57
2022-10-08T16:26:37.194Z,9.07
2022-10-08T16:29:39.150Z,8.77
2022-10-08T16:32:41.080Z,8.80
2022-10-08T16:35:43.440Z,8.80
2022-10-08T16:38:45.381Z,7.83
2022-10-08T16:41:48.068Z,7.23
2022-10-08T16:44:49.902Z,7.77
2022-10-08T16:47:52.969Z,8.70
2022-10-08T16:50:54.803Z,8.77
2022-10-08T16:53:58.406Z,9.43
2022-10-08T16:57:00.442Z,9.80
2022-10-08T17:00:02.474Z,10.33
2022-10-08T17:03:04.683Z,9.80
2022-10-08T17:06:07.243Z,11.27
2022-10-08T17:09:09.618Z,13.03
2022-10-08T17:12:11.551Z,12.57
2022-10-08T17:15:13.558Z,11.17
2022-10-08T17:18:15.929Z,12.90
2022-10-08T17:21:18.120Z,12.53
2022-10-08T17:24:20.127Z,13.23
2022-10-08T17:27:22.334Z,13.60
2022-10-08T17:30:24.733Z,14.93
2022-10-08T17:33:30.117Z,14.20
2022-10-08T17:36:37.814Z,13.77
2022-10-08T17:39:39.829Z,14.00
2022-10-08T17:42:41.972Z,15.37
2022-10-08T17:49:33.212Z,14.60
2022-10-08T17:52:35.229Z,13.87
2022-10-08T17:55:37.138Z,14.27
2022-10-08T17:58:39.627Z,15.13
2022-10-08T18:01:45.006Z,13.17
2022-10-08T18:04:47.410Z,12.93
2022-10-08T18:07:49.358Z,14.10
2022-10-08T18:10:52.010Z,12.93
2022-10-08T18:13:54.297Z,14.70
2022-10-08T18:16:56.888Z,14.10
2022-10-08T18:19:58.849Z,11.77
2022-10-08T18:23:00.827Z,11.17
2022-10-08T18:26:25.679Z,10.63
2022-10-08T18:29:27.527Z,9.57
2022-10-08T18:32:30.283Z,10.87
2022-10-08T18:35:32.963Z,10.80
2022-10-08T18:38:35.917Z,10.20
2022-10-08T18:41:42.939Z,11.03
2022-10-08T18:44:44.883Z,8.40
2022-10-08T18:47:46.718Z,9.10
2022-10-08T18:50:48.695Z,7.53
2022-10-08T18:53:51.877Z,7.50
2022-10-08T18:56:55.660Z,7.57
2022-10-08T18:59:57.488Z,7.43
2022-10-08T19:02:59.828Z,6.73
2022-10-08T19:06:02.001Z,6.40
2022-10-08T19:09:05.662Z,6.80
2022-10-08T19:12:08.647Z,5.80
2022-10-08T19:15:10.942Z,4.80
2022-10-08T19:18:12.859Z,5.40
2022-10-08T19:21:14.843Z,5.37
2022-10-08T19:24:20.106Z,5.80
2022-10-08T19:27:22.239Z,5.63
2022-10-08T19:30:27.374Z,4.80
2022-10-08T19:33:31.403Z,5.13
2022-10-08T19:36:36.339Z,5.53
2022-10-08T19:39:43.129Z,5.60
2022-10-08T19:42:45.964Z,4.90
2022-10-08T19:45:48.302Z,6.17
2022-10-08T19:48:52.084Z,5.03
2022-10-08T19:51:54.731Z,4.93
2022-10-08T19:54:56.577Z,5.50
2022-10-08T19:57:58.533Z,5.33
2022-10-08T20:01:13.448Z,9.47
2022-10-08T20:04:17.022Z,6.63
2022-10-08T20:07:18.993Z,6.00
2022-10-08T20:10:20.983Z,5.50
2022-10-08T20:13:22.848Z,5.33
2022-10-08T20:16:26.317Z,5.87
2022-10-08T20:19:28.219Z,5.93
2022-10-08T20:22:30.269Z,5.83
2022-10-08T20:25:32.169Z,5.80
2022-10-08T20:28:34.362Z,7.67
2022-10-08T20:31:39.445Z,7.20
2022-10-08T20:34:42.663Z,7.43
2022-10-08T20:37:44.493Z,8.00
2022-10-08T20:40:46.545Z,7.37
2022-10-08T20:43:48.725Z,7.67
2022-10-08T20:46:51.913Z,7.40
2022-10-08T20:49:53.873Z,6.87
2022-10-08T20:52:55.974Z,6.90
2022-10-08T20:56:02.168Z,6.77
2022-10-08T20:59:04.583Z,6.67
2022-10-08T21:02:06.964Z,5.63
2022-10-08T21:05:09.158Z,6.60
2022-10-08T21:08:11.101Z,6.77
2022-10-08T21:11:18.292Z,6.37
2022-10-08T21:14:22.738Z,6.47
2022-10-08T21:17:25.143Z,6.33
2022-10-08T21:20:27.043Z,6.20
2022-10-08T21:23:28.964Z,7.03
2022-10-08T21:26:32.824Z,7.37
2022-10-08T21:29:35.421Z,5.63
2022-10-08T21:32:37.265Z,5.63
2022-10-08T21:35:39.172Z,5.43
2022-10-08T21:38:41.648Z,5.83
2022-10-08T21:41:44.386Z,5.97
2022-10-08T21:44:46.226Z,6.30
2022-10-08T21:47:48.233Z,5.77
2022-10-08T21:51:04.818Z,5.60
2022-10-08T21:54:07.967Z,5.30
2022-10-08T21:57:12.231Z,4.80
2022-10-08T22:00:17.458Z,5.67
2022-10-08T22:03:19.656Z,5.07
2022-10-08T22:06:22.348Z,3.70
2022-10-08T22:09:26.808Z,4.20
2022-10-08T22:12:29.028Z,3.93
2022-10-08T22:15:32.207Z,4.47
2022-10-08T22:18:35.915Z,5.10
2022-10-08T22:21:38.494Z,4.90
2022-10-08T22:24:40.468Z,4.50
2022-10-08T22:27:42.357Z,5.27
2022-10-08T22:30:44.368Z,5.27
2022-10-08T22:33:47.103Z,4.73
2022-10-08T22:36:49.070Z,4.53
2022-10-08T22:39:50.919Z,4.67
2022-10-08T22:42:52.813Z,4.40
2022-10-08T22:45:54.717Z,4.30
2022-10-08T22:49:01.357Z,4.60
2022-10-08T22:52:03.232Z,4.20
2022-10-08T22:55:05.513Z,4.87
2022-10-08T22:58:07.515Z,4.23
2022-10-08T23:01:12.227Z,4.40
2022-10-08T23:04:14.083Z,4.13
2022-10-08T23:07:16.631Z,4.17
2022-10-08T23:10:18.538Z,4.97
2022-10-08T23:13:20.406Z,4.43
2022-10-08T23:16:23.293Z,4.57
2022-10-08T23:19:25.945Z,4.33
2022-10-08T23:22:28.893Z,4.30
2022-10-08T23:25:30.818Z,4.60
2022-10-08T23:28:34.139Z,4.43
2022-10-08T23:31:36.721Z,4.23
2022-10-08T23:34:38.579Z,3.83
2022-10-08T23:37:40.558Z,4.47
2022-10-08T23:40:42.454Z,4.50
2022-10-08T23:43:47.222Z,4.17
2022-10-08T23:46:49.118Z,4.60
2022-10-08T23:49:51.275Z,4.47
2022-10-08T23:52:53.153Z,5.00
2022-10-08T23:55:55.208Z,4.27
2022-10-08T23:58:57.989Z,4.60
